sensor_id;sensor_type;location;lat;lon;timestamp;P1;durP1;ratioP1;P2;durP2;ratioP2
75441;SDS011;64019;48.312;14.226;2023-03-03T00:01:21;19.13;;;8.17;;
75441;SDS011;64019;48.312;14.226;2023-03-03T00:03:51;16.57;;;8.03;;
75441;SDS011;64019;48.312;14.226;2023-03-03T00:06:17;16.87;;;7.00;;
75441;SDS011;64019;48.312;14.226;2023-03-03T00:08:43;17.13;;;7.90;;
75441;SDS011;64019;48.312;14.226;2023-03-03T00:11:09;19.23;;;8.50;;
75441;SDS011;64019;48.312;14.226;2023-03-03T00:16:22;13.30;;;7.00;;
75441;SDS011;64019;48.312;14.226;2023-03-03T00:19:01;21.23;;;7.60;;
75441;SDS011;64019;48.312;14.226;2023-03-03T00:21:39;20.07;;;8.80;;
75441;SDS011;64019;48.312;14.226;2023-03-03T00:26:38;21.93;;;8.03;;
75441;SDS011;64019;48.312;14.226;2023-03-03T00:34:48;14.40;;;6.80;;
75441;SDS011;64019;48.312;14.226;2023-03-03T00:37:28;19.30;;;7.93;;
75441;SDS011;64019;48.312;14.226;2023-03-03T00:39:57;18.53;;;7.77;;
75441;SDS011;64019;48.312;14.226;2023-03-03T00:42:33;16.23;;;7.20;;
75441;SDS011;64019;48.312;14.226;2023-03-03T00:45:00;15.03;;;7.20;;
75441;SDS011;64019;48.312;14.226;2023-03-03T00:52:40;24.63;;;8.90;;
75441;SDS011;64019;48.312;14.226;2023-03-03T00:55:14;18.93;;;7.33;;
75441;SDS011;64019;48.312;14.226;2023-03-03T00:57:40;18.37;;;7.43;;
75441;SDS011;64019;48.312;14.226;2023-03-03T01:00:05;18.67;;;7.40;;
75441;SDS011;64019;48.312;14.226;2023-03-03T01:02:32;18.10;;;8.23;;
75441;SDS011;64019;48.312;14.226;2023-03-03T01:04:57;19.70;;;8.00;;
75441;SDS011;64019;48.312;14.226;2023-03-03T01:07:23;17.73;;;7.33;;
75441;SDS011;64019;48.312;14.226;2023-03-03T01:09:49;17.47;;;8.30;;
75441;SDS011;64019;48.312;14.226;2023-03-03T01:12:15;17.13;;;7.63;;
75441;SDS011;64019;48.312;14.226;2023-03-03T01:14:41;16.67;;;7.63;;
75441;SDS011;64019;48.312;14.226;2023-03-03T01:17:07;18.83;;;8.63;;
75441;SDS011;64019;48.312;14.226;2023-03-03T01:19:33;16.53;;;8.07;;
75441;SDS011;64019;48.312;14.226;2023-03-03T01:21:58;19.47;;;7.50;;
75441;SDS011;64019;48.312;14.226;2023-03-03T01:24:24;16.27;;;8.20;;
75441;SDS011;64019;48.312;14.226;2023-03-03T01:26:50;20.70;;;7.63;;
75441;SDS011;64019;48.312;14.226;2023-03-03T01:29:15;20.27;;;8.90;;
75441;SDS011;64019;48.312;14.226;2023-03-03T01:31:41;22.10;;;8.37;;
75441;SDS011;64019;48.312;14.226;2023-03-03T01:34:07;18.70;;;8.07;;
75441;SDS011;64019;48.312;14.226;2023-03-03T01:36:33;18.37;;;8.37;;
75441;SDS011;64019;48.312;14.226;2023-03-03T01:38:58;18.00;;;7.83;;
75441;SDS011;64019;48.312;14.226;2023-03-03T01:41:28;20.03;;;8.40;;
75441;SDS011;64019;48.312;14.226;2023-03-03T01:43:57;18.03;;;7.83;;
75441;SDS011;64019;48.312;14.226;2023-03-03T01:48:49;23.27;;;8.73;;
75441;SDS011;64019;48.312;14.226;2023-03-03T01:54:02;24.07;;;8.10;;
75441;SDS011;64019;48.312;14.226;2023-03-03T01:56:30;18.33;;;7.90;;
75441;SDS011;64019;48.312;14.226;2023-03-03T01:59:04;26.57;;;9.53;;
75441;SDS011;64019;48.312;14.226;2023-03-03T02:01:37;15.33;;;8.20;;
75441;SDS011;64019;48.312;14.226;2023-03-03T02:04:03;15.57;;;8.20;;
75441;SDS011;64019;48.312;14.226;2023-03-03T02:06:39;20.57;;;9.23;;
75441;SDS011;64019;48.312;14.226;2023-03-03T02:12:04;20.97;;;9.23;;
75441;SDS011;64019;48.312;14.226;2023-03-03T02:14:32;22.97;;;9.27;;
75441;SDS011;64019;48.312;14.226;2023-03-03T02:16:59;21.60;;;8.80;;
75441;SDS011;64019;48.312;14.226;2023-03-03T02:22:07;22.13;;;9.20;;
75441;SDS011;64019;48.312;14.226;2023-03-03T02:24:35;22.47;;;8.97;;
75441;SDS011;64019;48.312;14.226;2023-03-03T02:27:08;22.87;;;9.07;;
75441;SDS011;64019;48.312;14.226;2023-03-03T02:29:34;21.27;;;9.20;;
75441;SDS011;64019;48.312;14.226;2023-03-03T02:32:00;19.93;;;8.87;;
75441;SDS011;64019;48.312;14.226;2023-03-03T02:34:26;22.50;;;8.90;;
75441;SDS011;64019;48.312;14.226;2023-03-03T02:36:52;22.67;;;9.43;;
75441;SDS011;64019;48.312;14.226;2023-03-03T02:39:24;18.10;;;8.47;;
75441;SDS011;64019;48.312;14.226;2023-03-03T02:42:12;17.40;;;9.37;;
75441;SDS011;64019;48.312;14.226;2023-03-03T02:44:42;21.97;;;8.67;;
75441;SDS011;64019;48.312;14.226;2023-03-03T02:47:08;25.43;;;9.70;;
75441;SDS011;64019;48.312;14.226;2023-03-03T02:49:34;20.07;;;8.80;;
75441;SDS011;64019;48.312;14.226;2023-03-03T02:52:02;19.27;;;8.93;;
75441;SDS011;64019;48.312;14.226;2023-03-03T02:54:29;21.63;;;9.17;;
75441;SDS011;64019;48.312;14.226;2023-03-03T02:56:56;23.10;;;9.47;;
75441;SDS011;64019;48.312;14.226;2023-03-03T02:59:22;22.67;;;8.80;;
75441;SDS011;64019;48.312;14.226;2023-03-03T03:01:47;21.70;;;8.97;;
75441;SDS011;64019;48.312;14.226;2023-03-03T03:04:17;18.30;;;8.43;;
75441;SDS011;64019;48.312;14.226;2023-03-03T03:06:48;24.77;;;9.17;;
75441;SDS011;64019;48.312;14.226;2023-03-03T03:09:14;26.80;;;8.57;;
75441;SDS011;64019;48.312;14.226;2023-03-03T03:11:40;19.40;;;8.53;;
75441;SDS011;64019;48.312;14.226;2023-03-03T03:14:07;26.33;;;9.73;;
75441;SDS011;64019;48.312;14.226;2023-03-03T03:16:34;21.30;;;8.73;;
75441;SDS011;64019;48.312;14.226;2023-03-03T03:18:59;21.10;;;8.73;;
75441;SDS011;64019;48.312;14.226;2023-03-03T03:21:26;19.77;;;9.63;;
75441;SDS011;64019;48.312;14.226;2023-03-03T03:23:52;18.70;;;8.93;;
75441;SDS011;64019;48.312;14.226;2023-03-03T03:26:17;20.33;;;8.50;;
75441;SDS011;64019;48.312;14.226;2023-03-03T03:28:45;16.27;;;8.27;;
75441;SDS011;64019;48.312;14.226;2023-03-03T03:31:12;18.50;;;9.03;;
75441;SDS011;64019;48.312;14.226;2023-03-03T03:33:38;20.63;;;9.50;;
75441;SDS011;64019;48.312;14.226;2023-03-03T03:36:04;20.93;;;9.43;;
75441;SDS011;64019;48.312;14.226;2023-03-03T03:38:30;19.53;;;9.87;;
75441;SDS011;64019;48.312;14.226;2023-03-03T03:40:56;25.23;;;10.47;;
75441;SDS011;64019;48.312;14.226;2023-03-03T03:43:23;18.70;;;9.73;;
75441;SDS011;64019;48.312;14.226;2023-03-03T03:45:49;23.60;;;9.87;;
75441;SDS011;64019;48.312;14.226;2023-03-03T03:48:14;18.17;;;9.43;;
75441;SDS011;64019;48.312;14.226;2023-03-03T03:50:41;21.03;;;8.77;;
75441;SDS011;64019;48.312;14.226;2023-03-03T03:53:07;22.37;;;9.63;;
75441;SDS011;64019;48.312;14.226;2023-03-03T03:55:33;18.83;;;9.50;;
75441;SDS011;64019;48.312;14.226;2023-03-03T03:57:58;23.33;;;9.77;;
75441;SDS011;64019;48.312;14.226;2023-03-03T04:00:24;23.60;;;10.30;;
75441;SDS011;64019;48.312;14.226;2023-03-03T04:02:50;20.77;;;9.00;;
75441;SDS011;64019;48.312;14.226;2023-03-03T04:05:16;20.93;;;9.90;;
75441;SDS011;64019;48.312;14.226;2023-03-03T04:07:42;23.13;;;9.33;;
75441;SDS011;64019;48.312;14.226;2023-03-03T04:10:08;24.93;;;9.93;;
75441;SDS011;64019;48.312;14.226;2023-03-03T04:12:34;17.87;;;9.30;;
75441;SDS011;64019;48.312;14.226;2023-03-03T04:15:04;23.20;;;10.03;;
75441;SDS011;64019;48.312;14.226;2023-03-03T04:17:30;30.57;;;10.17;;
75441;SDS011;64019;48.312;14.226;2023-03-03T04:19:56;23.17;;;10.37;;
75441;SDS011;64019;48.312;14.226;2023-03-03T04:22:22;22.10;;;9.83;;
75441;SDS011;64019;48.312;14.226;2023-03-03T04:24:47;26.17;;;11.17;;
75441;SDS011;64019;48.312;14.226;2023-03-03T04:27:13;24.53;;;11.37;;
75441;SDS011;64019;48.312;14.226;2023-03-03T04:29:39;25.33;;;10.30;;
75441;SDS011;64019;48.312;14.226;2023-03-03T04:32:06;25.33;;;10.37;;
75441;SDS011;64019;48.312;14.226;2023-03-03T04:34:32;22.43;;;10.30;;
75441;SDS011;64019;48.312;14.226;2023-03-03T04:36:57;26.30;;;10.47;;
75441;SDS011;64019;48.312;14.226;2023-03-03T04:39:23;24.30;;;10.63;;
75441;SDS011;64019;48.312;14.226;2023-03-03T04:41:49;32.30;;;10.97;;
75441;SDS011;64019;48.312;14.226;2023-03-03T04:44:14;23.80;;;11.17;;
75441;SDS011;64019;48.312;14.226;2023-03-03T04:46:40;23.87;;;10.27;;
75441;SDS011;64019;48.312;14.226;2023-03-03T04:49:06;26.03;;;11.37;;
75441;SDS011;64019;48.312;14.226;2023-03-03T04:51:33;21.33;;;11.43;;
75441;SDS011;64019;48.312;14.226;2023-03-03T04:53:59;23.67;;;9.77;;
75441;SDS011;64019;48.312;14.226;2023-03-03T04:56:24;24.73;;;11.00;;
75441;SDS011;64019;48.312;14.226;2023-03-03T04:58:50;21.73;;;10.83;;
75441;SDS011;64019;48.312;14.226;2023-03-03T05:01:16;22.87;;;9.73;;
75441;SDS011;64019;48.312;14.226;2023-03-03T05:03:43;25.27;;;11.60;;
75441;SDS011;64019;48.312;14.226;2023-03-03T05:06:09;24.17;;;11.23;;
75441;SDS011;64019;48.312;14.226;2023-03-03T05:08:35;28.37;;;12.73;;
75441;SDS011;64019;48.312;14.226;2023-03-03T05:11:01;75.80;;;33.57;;
75441;SDS011;64019;48.312;14.226;2023-03-03T05:13:28;52.23;;;24.23;;
75441;SDS011;64019;48.312;14.226;2023-03-03T05:15:54;46.57;;;20.77;;
75441;SDS011;64019;48.312;14.226;2023-03-03T05:18:21;46.13;;;20.00;;
75441;SDS011;64019;48.312;14.226;2023-03-03T05:20:49;46.53;;;17.10;;
75441;SDS011;64019;48.312;14.226;2023-03-03T05:23:15;35.27;;;15.20;;
75441;SDS011;64019;48.312;14.226;2023-03-03T05:25:42;36.33;;;13.20;;
75441;SDS011;64019;48.312;14.226;2023-03-03T05:28:08;40.37;;;18.97;;
75441;SDS011;64019;48.312;14.226;2023-03-03T05:30:35;46.63;;;23.27;;
75441;SDS011;64019;48.312;14.226;2023-03-03T05:33:02;111.50;;;45.80;;
75441;SDS011;64019;48.312;14.226;2023-03-03T05:35:28;62.93;;;28.80;;
75441;SDS011;64019;48.312;14.226;2023-03-03T05:37:54;53.57;;;25.83;;
75441;SDS011;64019;48.312;14.226;2023-03-03T05:40:22;42.07;;;19.50;;
75441;SDS011;64019;48.312;14.226;2023-03-03T05:42:51;31.20;;;15.37;;
75441;SDS011;64019;48.312;14.226;2023-03-03T05:45:17;35.00;;;14.77;;
75441;SDS011;64019;48.312;14.226;2023-03-03T05:47:48;96.10;;;33.07;;
75441;SDS011;64019;48.312;14.226;2023-03-03T05:50:15;66.30;;;27.07;;
75441;SDS011;64019;48.312;14.226;2023-03-03T05:52:41;49.80;;;21.77;;
75441;SDS011;64019;48.312;14.226;2023-03-03T05:55:07;29.77;;;14.07;;
75441;SDS011;64019;48.312;14.226;2023-03-03T05:57:33;35.23;;;15.97;;
75441;SDS011;64019;48.312;14.226;2023-03-03T06:00:00;27.43;;;13.97;;
75441;SDS011;64019;48.312;14.226;2023-03-03T06:02:30;35.07;;;15.90;;
75441;SDS011;64019;48.312;14.226;2023-03-03T06:04:55;38.00;;;15.73;;
75441;SDS011;64019;48.312;14.226;2023-03-03T06:07:21;32.57;;;12.30;;
75441;SDS011;64019;48.312;14.226;2023-03-03T06:09:47;29.43;;;12.23;;
75441;SDS011;64019;48.312;14.226;2023-03-03T06:12:12;29.93;;;12.40;;
75441;SDS011;64019;48.312;14.226;2023-03-03T06:14:38;27.63;;;11.00;;
75441;SDS011;64019;48.312;14.226;2023-03-03T06:17:04;28.60;;;12.20;;
75441;SDS011;64019;48.312;14.226;2023-03-03T06:19:30;24.87;;;11.80;;
75441;SDS011;64019;48.312;14.226;2023-03-03T06:21:55;26.07;;;11.07;;
75441;SDS011;64019;48.312;14.226;2023-03-03T06:24:21;42.50;;;19.30;;
75441;SDS011;64019;48.312;14.226;2023-03-03T06:26:49;39.03;;;17.40;;
75441;SDS011;64019;48.312;14.226;2023-03-03T06:29:15;28.87;;;14.30;;
75441;SDS011;64019;48.312;14.226;2023-03-03T06:31:41;30.57;;;13.50;;
75441;SDS011;64019;48.312;14.226;2023-03-03T06:34:07;26.53;;;14.23;;
75441;SDS011;64019;48.312;14.226;2023-03-03T06:36:33;34.30;;;14.80;;
75441;SDS011;64019;48.312;14.226;2023-03-03T06:38:59;36.87;;;14.30;;
75441;SDS011;64019;48.312;14.226;2023-03-03T06:41:25;35.93;;;15.37;;
75441;SDS011;64019;48.312;14.226;2023-03-03T06:43:50;75.17;;;31.97;;
75441;SDS011;64019;48.312;14.226;2023-03-03T06:46:16;58.23;;;25.03;;
75441;SDS011;64019;48.312;14.226;2023-03-03T06:48:42;53.97;;;24.60;;
75441;SDS011;64019;48.312;14.226;2023-03-03T06:51:53;39.00;;;18.37;;
75441;SDS011;64019;48.312;14.226;2023-03-03T06:53:56;28.57;;;14.47;;
75441;SDS011;64019;48.312;14.226;2023-03-03T06:56:24;38.50;;;15.60;;
75441;SDS011;64019;48.312;14.226;2023-03-03T06:58:57;30.10;;;13.60;;
75441;SDS011;64019;48.312;14.226;2023-03-03T07:01:24;31.67;;;13.80;;
75441;SDS011;64019;48.312;14.226;2023-03-03T07:03:51;32.60;;;14.53;;
75441;SDS011;64019;48.312;14.226;2023-03-03T07:06:21;31.40;;;13.27;;
75441;SDS011;64019;48.312;14.226;2023-03-03T07:08:49;28.97;;;14.37;;
75441;SDS011;64019;48.312;14.226;2023-03-03T07:11:22;27.53;;;13.77;;
75441;SDS011;64019;48.312;14.226;2023-03-03T07:13:54;33.83;;;13.87;;
75441;SDS011;64019;48.312;14.226;2023-03-03T07:16:26;32.63;;;13.70;;
75441;SDS011;64019;48.312;14.226;2023-03-03T07:18:53;32.50;;;14.10;;
75441;SDS011;64019;48.312;14.226;2023-03-03T07:21:25;34.63;;;13.17;;
75441;SDS011;64019;48.312;14.226;2023-03-03T07:23:57;29.57;;;13.50;;
75441;SDS011;64019;48.312;14.226;2023-03-03T07:26:26;29.50;;;12.93;;
75441;SDS011;64019;48.312;14.226;2023-03-03T07:29:00;30.57;;;13.87;;
75441;SDS011;64019;48.312;14.226;2023-03-03T07:31:45;24.70;;;12.70;;
75441;SDS011;64019;48.312;14.226;2023-03-03T07:36:54;32.50;;;13.00;;
75441;SDS011;64019;48.312;14.226;2023-03-03T07:39:36;29.90;;;13.57;;
75441;SDS011;64019;48.312;14.226;2023-03-03T07:42:19;32.93;;;14.57;;
75441;SDS011;64019;48.312;14.226;2023-03-03T07:44:53;33.90;;;13.53;;
75441;SDS011;64019;48.312;14.226;2023-03-03T07:47:22;32.20;;;13.60;;
75441;SDS011;64019;48.312;14.226;2023-03-03T07:50:00;34.30;;;12.77;;
75441;SDS011;64019;48.312;14.226;2023-03-03T07:52:40;31.90;;;12.97;;
75441;SDS011;64019;48.312;14.226;2023-03-03T07:58:21;27.23;;;13.67;;
75441;SDS011;64019;48.312;14.226;2023-03-03T08:03:58;30.50;;;13.53;;
75441;SDS011;64019;48.312;14.226;2023-03-03T08:11:34;28.93;;;13.33;;
75441;SDS011;64019;48.312;14.226;2023-03-03T08:14:28;30.67;;;13.47;;
75441;SDS011;64019;48.312;14.226;2023-03-03T08:16:55;30.23;;;13.30;;
75441;SDS011;64019;48.312;14.226;2023-03-03T08:19:22;35.97;;;13.53;;
75441;SDS011;64019;48.312;14.226;2023-03-03T08:21:48;35.20;;;13.80;;
75441;SDS011;64019;48.312;14.226;2023-03-03T08:24:14;27.17;;;13.60;;
75441;SDS011;64019;48.312;14.226;2023-03-03T08:26:39;26.27;;;12.33;;
75441;SDS011;64019;48.312;14.226;2023-03-03T08:29:05;28.90;;;14.07;;
75441;SDS011;64019;48.312;14.226;2023-03-03T08:31:31;30.83;;;13.90;;
75441;SDS011;64019;48.312;14.226;2023-03-03T08:33:56;31.83;;;12.93;;
75441;SDS011;64019;48.312;14.226;2023-03-03T08:36:23;32.03;;;13.83;;
75441;SDS011;64019;48.312;14.226;2023-03-03T08:38:48;32.50;;;14.17;;
75441;SDS011;64019;48.312;14.226;2023-03-03T08:41:14;26.37;;;13.53;;
75441;SDS011;64019;48.312;14.226;2023-03-03T08:43:40;29.00;;;13.63;;
75441;SDS011;64019;48.312;14.226;2023-03-03T08:46:05;32.33;;;14.30;;
75441;SDS011;64019;48.312;14.226;2023-03-03T08:48:34;37.07;;;14.43;;
75441;SDS011;64019;48.312;14.226;2023-03-03T08:51:00;28.93;;;13.73;;
75441;SDS011;64019;48.312;14.226;2023-03-03T08:53:25;35.50;;;13.73;;
75441;SDS011;64019;48.312;14.226;2023-03-03T08:55:52;28.47;;;13.60;;
75441;SDS011;64019;48.312;14.226;2023-03-03T08:58:18;31.33;;;14.43;;
75441;SDS011;64019;48.312;14.226;2023-03-03T09:00:44;28.07;;;13.87;;
75441;SDS011;64019;48.312;14.226;2023-03-03T09:03:10;31.97;;;14.97;;
75441;SDS011;64019;48.312;14.226;2023-03-03T09:05:36;33.67;;;14.57;;
75441;SDS011;64019;48.312;14.226;2023-03-03T09:08:04;32.13;;;14.57;;
75441;SDS011;64019;48.312;14.226;2023-03-03T09:10:31;27.93;;;13.77;;
75441;SDS011;64019;48.312;14.226;2023-03-03T09:12:59;29.80;;;13.87;;
75441;SDS011;64019;48.312;14.226;2023-03-03T09:15:31;31.50;;;13.17;;
75441;SDS011;64019;48.312;14.226;2023-03-03T09:18:21;31.10;;;14.63;;
75441;SDS011;64019;48.312;14.226;2023-03-03T09:20:54;29.90;;;14.97;;
75441;SDS011;64019;48.312;14.226;2023-03-03T09:23:32;28.07;;;13.43;;
75441;SDS011;64019;48.312;14.226;2023-03-03T09:26:21;32.50;;;14.20;;
75441;SDS011;64019;48.312;14.226;2023-03-03T09:34:15;30.60;;;15.73;;
75441;SDS011;64019;48.312;14.226;2023-03-03T09:36:49;30.77;;;15.13;;
75441;SDS011;64019;48.312;14.226;2023-03-03T09:53:23;33.43;;;14.33;;
75441;SDS011;64019;48.312;14.226;2023-03-03T10:06:30;36.20;;;17.23;;
75441;SDS011;64019;48.312;14.226;2023-03-03T10:26:10;32.63;;;16.27;;
75441;SDS011;64019;48.312;14.226;2023-03-03T10:31:36;39.60;;;16.87;;
75441;SDS011;64019;48.312;14.226;2023-03-03T10:44:17;33.77;;;16.13;;
75441;SDS011;64019;48.312;14.226;2023-03-03T10:46:35;40.13;;;18.33;;
75441;SDS011;64019;48.312;14.226;2023-03-03T10:55:30;42.43;;;17.03;;
75441;SDS011;64019;48.312;14.226;2023-03-03T11:09:20;46.07;;;19.10;;
75441;SDS011;64019;48.312;14.226;2023-03-03T11:14:46;42.20;;;18.20;;
75441;SDS011;64019;48.312;14.226;2023-03-03T11:26:07;39.20;;;19.00;;
75441;SDS011;64019;48.312;14.226;2023-03-03T11:29:38;39.17;;;18.90;;
75441;SDS011;64019;48.312;14.226;2023-03-03T11:32:01;39.03;;;18.10;;
75441;SDS011;64019;48.312;14.226;2023-03-03T11:39:44;35.77;;;16.27;;
75441;SDS011;64019;48.312;14.226;2023-03-03T11:42:15;38.20;;;17.70;;
75441;SDS011;64019;48.312;14.226;2023-03-03T11:44:49;36.80;;;15.53;;
75441;SDS011;64019;48.312;14.226;2023-03-03T11:48:00;34.77;;;16.77;;
75441;SDS011;64019;48.312;14.226;2023-03-03T11:58:53;36.30;;;15.73;;
75441;SDS011;64019;48.312;14.226;2023-03-03T12:03:59;33.03;;;14.60;;
75441;SDS011;64019;48.312;14.226;2023-03-03T12:09:12;42.83;;;18.13;;
75441;SDS011;64019;48.312;14.226;2023-03-03T12:12:15;36.03;;;16.13;;
75441;SDS011;64019;48.312;14.226;2023-03-03T12:17:46;35.27;;;16.27;;
75441;SDS011;64019;48.312;14.226;2023-03-03T12:26:45;37.37;;;16.13;;
75441;SDS011;64019;48.312;14.226;2023-03-03T12:32:20;37.33;;;15.93;;
75441;SDS011;64019;48.312;14.226;2023-03-03T12:35:05;36.33;;;15.90;;
75441;SDS011;64019;48.312;14.226;2023-03-03T12:40:23;36.57;;;16.60;;
75441;SDS011;64019;48.312;14.226;2023-03-03T12:43:02;40.73;;;16.23;;
75441;SDS011;64019;48.312;14.226;2023-03-03T12:48:42;41.00;;;15.67;;
75441;SDS011;64019;48.312;14.226;2023-03-03T12:59:31;30.67;;;15.60;;
75441;SDS011;64019;48.312;14.226;2023-03-03T13:05:01;33.60;;;15.33;;
75441;SDS011;64019;48.312;14.226;2023-03-03T13:15:36;37.30;;;14.23;;
75441;SDS011;64019;48.312;14.226;2023-03-03T13:18:51;31.80;;;14.57;;
75441;SDS011;64019;48.312;14.226;2023-03-03T13:21:15;35.20;;;15.17;;
75441;SDS011;64019;48.312;14.226;2023-03-03T13:23:57;33.60;;;14.60;;
75441;SDS011;64019;48.312;14.226;2023-03-03T13:26:32;34.43;;;15.73;;
75441;SDS011;64019;48.312;14.226;2023-03-03T13:31:47;34.43;;;15.57;;
75441;SDS011;64019;48.312;14.226;2023-03-03T13:34:31;34.50;;;15.63;;
75441;SDS011;64019;48.312;14.226;2023-03-03T13:39:32;42.80;;;14.80;;
75441;SDS011;64019;48.312;14.226;2023-03-03T13:44:56;34.27;;;15.30;;
75441;SDS011;64019;48.312;14.226;2023-03-03T13:47:27;29.43;;;13.97;;
75441;SDS011;64019;48.312;14.226;2023-03-03T13:50:32;30.37;;;14.30;;
75441;SDS011;64019;48.312;14.226;2023-03-03T13:53:17;36.60;;;14.07;;
75441;SDS011;64019;48.312;14.226;2023-03-03T13:56:24;27.87;;;13.47;;
75441;SDS011;64019;48.312;14.226;2023-03-03T14:05:11;28.20;;;13.13;;
75441;SDS011;64019;48.312;14.226;2023-03-03T14:08:02;30.37;;;13.07;;
75441;SDS011;64019;48.312;14.226;2023-03-03T14:13:36;32.83;;;13.93;;
75441;SDS011;64019;48.312;14.226;2023-03-03T14:16:15;27.77;;;13.37;;
75441;SDS011;64019;48.312;14.226;2023-03-03T14:19:02;28.47;;;12.77;;
75441;SDS011;64019;48.312;14.226;2023-03-03T14:22:11;33.27;;;13.10;;
75441;SDS011;64019;48.312;14.226;2023-03-03T14:24:53;23.17;;;11.90;;
75441;SDS011;64019;48.312;14.226;2023-03-03T14:27:26;27.53;;;12.27;;
75441;SDS011;64019;48.312;14.226;2023-03-03T14:29:58;29.83;;;12.50;;
75441;SDS011;64019;48.312;14.226;2023-03-03T14:32:26;32.63;;;12.97;;
75441;SDS011;64019;48.312;14.226;2023-03-03T14:34:56;28.07;;;12.20;;
75441;SDS011;64019;48.312;14.226;2023-03-03T14:37:27;25.70;;;11.60;;
75441;SDS011;64019;48.312;14.226;2023-03-03T14:45:32;27.40;;;11.80;;
75441;SDS011;64019;48.312;14.226;2023-03-03T14:48:21;23.33;;;11.33;;
75441;SDS011;64019;48.312;14.226;2023-03-03T14:50:49;27.60;;;11.57;;
75441;SDS011;64019;48.312;14.226;2023-03-03T14:55:50;26.30;;;12.43;;
75441;SDS011;64019;48.312;14.226;2023-03-03T14:58:24;26.70;;;13.63;;
75441;SDS011;64019;48.312;14.226;2023-03-03T15:03:31;30.17;;;13.03;;
75441;SDS011;64019;48.312;14.226;2023-03-03T15:06:11;26.97;;;13.03;;
75441;SDS011;64019;48.312;14.226;2023-03-03T15:08:50;30.97;;;13.90;;
75441;SDS011;64019;48.312;14.226;2023-03-03T15:13:47;30.10;;;13.47;;
75441;SDS011;64019;48.312;14.226;2023-03-03T15:16:23;32.27;;;14.27;;
75441;SDS011;64019;48.312;14.226;2023-03-03T15:24:46;30.27;;;12.27;;
75441;SDS011;64019;48.312;14.226;2023-03-03T15:27:20;29.83;;;12.77;;
75441;SDS011;64019;48.312;14.226;2023-03-03T15:29:56;32.43;;;11.87;;
75441;SDS011;64019;48.312;14.226;2023-03-03T15:35:43;26.90;;;11.90;;
75441;SDS011;64019;48.312;14.226;2023-03-03T15:44:19;32.40;;;14.87;;
75441;SDS011;64019;48.312;14.226;2023-03-03T15:52:14;38.30;;;15.70;;
75441;SDS011;64019;48.312;14.226;2023-03-03T15:54:59;36.63;;;16.37;;
75441;SDS011;64019;48.312;14.226;2023-03-03T16:00:13;35.33;;;15.37;;
75441;SDS011;64019;48.312;14.226;2023-03-03T16:03:20;35.97;;;15.07;;
75441;SDS011;64019;48.312;14.226;2023-03-03T16:05:54;37.67;;;15.47;;
75441;SDS011;64019;48.312;14.226;2023-03-03T16:13:40;37.90;;;15.83;;
75441;SDS011;64019;48.312;14.226;2023-03-03T16:16:42;41.97;;;15.80;;
75441;SDS011;64019;48.312;14.226;2023-03-03T16:27:45;43.10;;;18.13;;
75441;SDS011;64019;48.312;14.226;2023-03-03T16:35:36;45.77;;;19.10;;
75441;SDS011;64019;48.312;14.226;2023-03-03T16:38:11;48.87;;;20.10;;
75441;SDS011;64019;48.312;14.226;2023-03-03T16:43:22;42.27;;;19.07;;
75441;SDS011;64019;48.312;14.226;2023-03-03T16:45:49;49.27;;;20.73;;
75441;SDS011;64019;48.312;14.226;2023-03-03T16:53:40;53.47;;;20.77;;
75441;SDS011;64019;48.312;14.226;2023-03-03T16:58:45;52.20;;;21.50;;
75441;SDS011;64019;48.312;14.226;2023-03-03T17:09:53;53.97;;;20.33;;
75441;SDS011;64019;48.312;14.226;2023-03-03T17:12:45;46.97;;;20.37;;
75441;SDS011;64019;48.312;14.226;2023-03-03T17:20:40;55.40;;;19.70;;
75441;SDS011;64019;48.312;14.226;2023-03-03T17:28:45;46.80;;;19.57;;
75441;SDS011;64019;48.312;14.226;2023-03-03T17:36:33;53.20;;;21.00;;
75441;SDS011;64019;48.312;14.226;2023-03-03T17:39:16;57.47;;;21.73;;
75441;SDS011;64019;48.312;14.226;2023-03-03T17:47:57;54.67;;;21.53;;
75441;SDS011;64019;48.312;14.226;2023-03-03T17:51:31;47.67;;;20.43;;
75441;SDS011;64019;48.312;14.226;2023-03-03T18:02:38;50.83;;;21.27;;
75441;SDS011;64019;48.312;14.226;2023-03-03T18:05:21;59.20;;;22.80;;
75441;SDS011;64019;48.312;14.226;2023-03-03T18:08:03;52.50;;;21.10;;
75441;SDS011;64019;48.312;14.226;2023-03-03T18:13:47;54.57;;;21.83;;
75441;SDS011;64019;48.312;14.226;2023-03-03T18:16:23;49.10;;;20.90;;
75441;SDS011;64019;48.312;14.226;2023-03-03T18:21:57;45.80;;;20.10;;
75441;SDS011;64019;48.312;14.226;2023-03-03T18:33:06;53.90;;;21.60;;
75441;SDS011;64019;48.312;14.226;2023-03-03T18:40:50;57.47;;;22.10;;
75441;SDS011;64019;48.312;14.226;2023-03-03T18:56:45;58.30;;;24.73;;
75441;SDS011;64019;48.312;14.226;2023-03-03T19:00:06;60.53;;;24.60;;
75441;SDS011;64019;48.312;14.226;2023-03-03T19:20:43;60.17;;;21.87;;
75441;SDS011;64019;48.312;14.226;2023-03-03T19:25:43;56.30;;;22.37;;
75441;SDS011;64019;48.312;14.226;2023-03-03T19:30:55;52.33;;;22.77;;
75441;SDS011;64019;48.312;14.226;2023-03-03T19:36:18;56.47;;;21.30;;
75441;SDS011;64019;48.312;14.226;2023-03-03T19:39:11;56.27;;;22.80;;
75441;SDS011;64019;48.312;14.226;2023-03-03T19:46:59;64.50;;;24.23;;
75441;SDS011;64019;48.312;14.226;2023-03-03T19:52:28;55.00;;;22.87;;
75441;SDS011;64019;48.312;14.226;2023-03-03T20:03:57;63.17;;;25.17;;
75441;SDS011;64019;48.312;14.226;2023-03-03T20:06:44;57.47;;;23.97;;
75441;SDS011;64019;48.312;14.226;2023-03-03T20:23:12;66.43;;;24.93;;
75441;SDS011;64019;48.312;14.226;2023-03-03T20:26:00;58.20;;;24.33;;
75441;SDS011;64019;48.312;14.226;2023-03-03T20:31:14;55.07;;;23.43;;
75441;SDS011;64019;48.312;14.226;2023-03-03T20:41:49;54.20;;;23.23;;
75441;SDS011;64019;48.312;14.226;2023-03-03T20:47:25;62.00;;;24.13;;
75441;SDS011;64019;48.312;14.226;2023-03-03T20:52:50;56.77;;;23.90;;
75441;SDS011;64019;48.312;14.226;2023-03-03T20:58:17;64.67;;;22.63;;
75441;SDS011;64019;48.312;14.226;2023-03-03T21:03:32;62.13;;;24.67;;
75441;SDS011;64019;48.312;14.226;2023-03-03T21:06:06;57.50;;;22.57;;
75441;SDS011;64019;48.312;14.226;2023-03-03T21:08:49;62.83;;;23.93;;
75441;SDS011;64019;48.312;14.226;2023-03-03T21:13:49;56.03;;;23.50;;
75441;SDS011;64019;48.312;14.226;2023-03-03T21:21:33;61.33;;;23.37;;
75441;SDS011;64019;48.312;14.226;2023-03-03T21:24:01;56.97;;;23.10;;
75441;SDS011;64019;48.312;14.226;2023-03-03T21:29:16;58.23;;;22.33;;
75441;SDS011;64019;48.312;14.226;2023-03-03T21:31:56;56.00;;;22.77;;
75441;SDS011;64019;48.312;14.226;2023-03-03T21:34:36;57.50;;;23.47;;
75441;SDS011;64019;48.312;14.226;2023-03-03T21:37:07;60.10;;;23.17;;
75441;SDS011;64019;48.312;14.226;2023-03-03T21:39:38;65.07;;;23.93;;
75441;SDS011;64019;48.312;14.226;2023-03-03T21:42:17;51.73;;;22.90;;
75441;SDS011;64019;48.312;14.226;2023-03-03T21:45:12;57.63;;;23.87;;
75441;SDS011;64019;48.312;14.226;2023-03-03T21:47:39;57.50;;;23.50;;
75441;SDS011;64019;48.312;14.226;2023-03-03T21:50:06;52.33;;;23.03;;